createdAt,value
2023-04-13T00:00:38.656Z,2.40
2023-04-13T00:03:05.660Z,3.28
2023-04-13T00:05:34.462Z,2.53
2023-04-13T00:08:03.463Z,3.58
2023-04-13T00:10:37.077Z,4.20
2023-04-13T00:13:05.250Z,3.55
2023-04-13T00:15:32.623Z,4.00
2023-04-13T00:17:59.666Z,3.92
2023-04-13T00:20:26.463Z,1.67
2023-04-13T00:22:53.829Z,1.35
2023-04-13T00:25:20.603Z,4.80
2023-04-13T00:27:49.901Z,3.35
2023-04-13T00:30:18.136Z,2.65
2023-04-13T00:32:45.286Z,2.80
2023-04-13T00:35:15.001Z,3.22
2023-04-13T00:37:43.169Z,2.63
2023-04-13T00:40:10.878Z,2.97
2023-04-13T00:42:37.631Z,1.67
2023-04-13T00:45:04.800Z,3.08
2023-04-13T00:47:32.327Z,4.15
2023-04-13T00:50:01.509Z,1.58
2023-04-13T00:52:28.971Z,3.17
2023-04-13T00:54:57.434Z,2.47
2023-04-13T00:57:25.381Z,3.05
2023-04-13T00:59:52.838Z,2.78
2023-04-13T01:02:26.449Z,2.90
2023-04-13T01:04:54.904Z,3.30
2023-04-13T01:07:59.381Z,4.43
2023-04-13T01:10:46.924Z,2.60
2023-04-13T01:13:42.012Z,2.65
2023-04-13T01:16:14.548Z,1.88
2023-04-13T01:18:41.804Z,2.78
2023-04-13T01:21:12.037Z,1.98
2023-04-13T01:23:51.496Z,3.45
2023-04-13T01:26:19.000Z,2.22
2023-04-13T01:28:45.664Z,2.25
2023-04-13T01:31:12.464Z,3.47
2023-04-13T01:33:40.643Z,1.88
2023-04-13T01:36:08.683Z,2.90
2023-04-13T01:38:35.658Z,2.00
2023-04-13T01:41:03.727Z,3.33
2023-04-13T01:43:30.696Z,3.22
2023-04-13T01:46:05.660Z,2.60
2023-04-13T01:48:47.252Z,2.13
2023-04-13T01:51:16.492Z,2.08
2023-04-13T01:53:57.311Z,3.53
2023-04-13T01:56:24.099Z,2.45
2023-04-13T01:58:53.509Z,1.55
2023-04-13T02:01:21.777Z,2.17
2023-04-13T02:03:49.046Z,1.95
2023-04-13T02:06:16.394Z,1.45
2023-04-13T02:08:43.057Z,2.42
2023-04-13T02:11:10.202Z,1.42
2023-04-13T02:13:36.923Z,1.27
2023-04-13T02:16:04.183Z,3.60
2023-04-13T02:18:31.016Z,3.15
2023-04-13T02:21:09.292Z,1.98
2023-04-13T02:23:36.864Z,2.80
2023-04-13T02:26:04.563Z,3.30
2023-04-13T02:28:31.252Z,1.38
2023-04-13T02:30:59.911Z,2.47
2023-04-13T02:33:32.786Z,3.22
2023-04-13T02:36:00.220Z,2.47
2023-04-13T02:38:30.468Z,2.47
2023-04-13T02:41:00.981Z,2.25
2023-04-13T02:43:27.771Z,3.00
2023-04-13T02:45:54.897Z,2.60
2023-04-13T02:48:22.567Z,2.40
2023-04-13T02:50:49.634Z,2.03
2023-04-13T02:53:16.818Z,2.17
2023-04-13T02:55:43.598Z,2.22
2023-04-13T02:58:10.836Z,1.73
2023-04-13T03:00:38.636Z,1.90
2023-04-13T03:03:07.104Z,2.67
2023-04-13T03:05:33.977Z,2.50
2023-04-13T03:08:00.623Z,4.05
2023-04-13T03:10:27.367Z,2.53
2023-04-13T03:12:55.641Z,2.38
2023-04-13T03:15:23.362Z,1.75
2023-04-13T03:17:50.609Z,1.83
2023-04-13T03:20:20.673Z,2.60
2023-04-13T03:22:47.340Z,3.03
2023-04-13T03:25:14.058Z,6.03
2023-04-13T03:27:41.000Z,2.42
2023-04-13T03:30:08.849Z,5.10
2023-04-13T03:32:35.743Z,3.97
2023-04-13T03:35:02.594Z,1.98
2023-04-13T03:37:32.465Z,3.55
2023-04-13T03:39:59.275Z,1.00
2023-04-13T03:42:26.676Z,2.13
2023-04-13T03:44:53.438Z,1.65
2023-04-13T03:47:20.389Z,2.25
2023-04-13T03:49:47.485Z,2.13
2023-04-13T03:52:14.438Z,2.10
2023-04-13T03:54:41.545Z,2.40
2023-04-13T03:57:08.329Z,3.00
2023-04-13T03:59:35.224Z,2.70
2023-04-13T04:02:03.058Z,2.42
2023-04-13T04:04:30.047Z,2.70
2023-04-13T04:06:58.537Z,2.90
2023-04-13T04:09:25.668Z,1.55
2023-04-13T04:11:52.447Z,2.97
2023-04-13T04:14:20.456Z,1.60
2023-04-13T04:16:47.294Z,1.83
2023-04-13T04:19:14.141Z,1.73
2023-04-13T04:21:47.132Z,2.22
2023-04-13T04:24:22.453Z,1.83
2023-04-13T04:26:50.019Z,1.55
2023-04-13T04:29:22.476Z,0.70
2023-04-13T04:31:53.430Z,1.20
2023-04-13T04:34:20.681Z,4.07
2023-04-13T04:36:50.553Z,3.38
2023-04-13T04:39:22.114Z,2.17
2023-04-13T04:41:55.232Z,2.10
2023-04-13T04:44:25.335Z,5.03
2023-04-13T04:46:52.602Z,2.30
2023-04-13T04:49:21.650Z,4.55
2023-04-13T04:51:52.067Z,4.38
2023-04-13T04:54:19.746Z,2.67
2023-04-13T04:56:47.413Z,3.97
2023-04-13T04:59:14.437Z,4.32
2023-04-13T05:01:43.128Z,3.30
2023-04-13T05:04:10.399Z,5.00
2023-04-13T05:06:37.832Z,2.85
2023-04-13T05:09:05.877Z,2.35
2023-04-13T05:11:32.774Z,2.88
2023-04-13T05:14:00.838Z,2.17
2023-04-13T05:16:30.521Z,2.92
2023-04-13T05:18:58.900Z,6.22
2023-04-13T05:21:27.096Z,3.15
2023-04-13T05:23:54.454Z,1.88
2023-04-13T05:26:21.201Z,2.03
2023-04-13T05:28:47.925Z,2.00
2023-04-13T05:31:15.774Z,2.35
2023-04-13T05:33:42.536Z,4.15
2023-04-13T05:36:09.877Z,1.55
2023-04-13T05:38:36.657Z,3.67
2023-04-13T05:41:03.468Z,1.55
2023-04-13T05:43:30.602Z,2.25
2023-04-13T05:45:58.518Z,2.70
2023-04-13T05:48:25.600Z,2.05
2023-04-13T05:50:58.689Z,3.45
2023-04-13T05:53:26.137Z,2.05
2023-04-13T05:55:53.158Z,5.45
2023-04-13T05:58:20.223Z,3.03
2023-04-13T06:00:46.988Z,3.25
2023-04-13T06:03:15.696Z,4.68
2023-04-13T06:05:43.321Z,4.72
2023-04-13T06:08:10.535Z,4.45
2023-04-13T06:10:37.683Z,4.70
2023-04-13T06:13:04.449Z,7.30
2023-04-13T06:15:31.727Z,5.95
2023-04-13T06:18:00.136Z,3.75
2023-04-13T06:20:27.158Z,6.68
2023-04-13T06:22:53.865Z,4.50
2023-04-13T06:25:20.977Z,4.38
2023-04-13T06:27:48.961Z,6.15
2023-04-13T06:30:15.771Z,5.25
2023-04-13T06:32:42.585Z,9.40
2023-04-13T06:35:10.904Z,5.72
2023-04-13T06:37:39.033Z,7.95
2023-04-13T06:40:14.608Z,6.57
2023-04-13T06:42:41.690Z,4.88
2023-04-13T06:45:11.857Z,9.85
2023-04-13T06:47:42.043Z,6.90
2023-04-13T06:50:10.147Z,3.88
2023-04-13T06:52:37.467Z,5.30
2023-04-13T06:55:04.858Z,7.57
2023-04-13T06:57:31.598Z,7.15
2023-04-13T06:59:59.933Z,4.50
2023-04-13T07:02:27.015Z,6.03
2023-04-13T07:04:54.920Z,5.60
2023-04-13T07:07:21.662Z,5.43
2023-04-13T07:09:48.595Z,6.18
2023-04-13T07:12:15.662Z,7.03
2023-04-13T07:14:42.580Z,5.47
2023-04-13T07:17:11.273Z,9.15
2023-04-13T07:19:39.497Z,4.13
2023-04-13T07:22:06.233Z,11.02
2023-04-13T07:24:34.106Z,6.95
2023-04-13T07:27:01.318Z,10.25
2023-04-13T07:29:29.324Z,7.53
2023-04-13T07:32:03.692Z,9.20
2023-04-13T07:34:30.824Z,5.47
2023-04-13T07:36:57.833Z,6.78
2023-04-13T07:39:25.077Z,7.43
2023-04-13T07:41:51.853Z,6.63
2023-04-13T07:44:18.600Z,4.75
2023-04-13T07:46:45.488Z,5.22
2023-04-13T07:49:12.205Z,9.10
2023-04-13T07:51:38.961Z,5.10
2023-04-13T07:54:05.773Z,6.10
2023-04-13T07:56:32.539Z,7.70
2023-04-13T07:59:01.276Z,6.80
2023-04-13T08:01:28.589Z,5.82
2023-04-13T08:03:55.505Z,6.18
2023-04-13T08:06:23.337Z,5.78
2023-04-13T08:08:50.065Z,5.97
2023-04-13T08:11:16.876Z,5.97
2023-04-13T08:13:43.655Z,5.07
2023-04-13T08:16:11.117Z,7.40
2023-04-13T08:18:38.401Z,2.92
2023-04-13T08:21:11.271Z,5.70
2023-04-13T08:23:42.402Z,3.95
2023-04-13T08:26:19.244Z,5.80
2023-04-13T08:28:47.663Z,5.55
2023-04-13T08:31:15.675Z,5.95
2023-04-13T08:33:43.201Z,7.20
2023-04-13T08:36:09.948Z,6.43
2023-04-13T08:38:37.013Z,3.75
2023-04-13T08:41:03.874Z,3.40
2023-04-13T08:43:33.024Z,4.88
2023-04-13T08:46:02.611Z,3.65
2023-04-13T08:48:42.318Z,5.25
2023-04-13T08:51:14.605Z,5.63
2023-04-13T08:53:41.397Z,4.45
2023-04-13T08:56:10.204Z,4.55
2023-04-13T08:58:38.183Z,4.68
2023-04-13T09:01:06.397Z,5.72
2023-04-13T09:03:36.009Z,4.07
2023-04-13T09:06:05.227Z,5.15
2023-04-13T09:08:35.663Z,6.57
2023-04-13T09:11:03.781Z,5.35
2023-04-13T09:13:31.327Z,4.72
2023-04-13T09:15:58.356Z,5.50
2023-04-13T09:18:25.225Z,4.10
2023-04-13T09:21:00.479Z,4.50
2023-04-13T09:23:27.301Z,4.22
2023-04-13T09:26:09.205Z,2.88
2023-04-13T09:28:46.846Z,3.33
2023-04-13T09:31:13.882Z,3.70
2023-04-13T09:33:52.002Z,4.95
2023-04-13T09:36:20.580Z,2.70
2023-04-13T09:38:55.154Z,4.32
2023-04-13T09:41:29.967Z,8.38
2023-04-13T09:43:56.899Z,9.35
2023-04-13T09:46:23.688Z,5.13
2023-04-13T09:49:02.120Z,5.70
2023-04-13T09:51:39.737Z,5.95
2023-04-13T09:54:06.879Z,6.32
2023-04-13T09:56:52.755Z,5.75
2023-04-13T09:59:19.687Z,6.90
2023-04-13T10:01:46.721Z,4.88
2023-04-13T10:04:13.557Z,5.38
2023-04-13T10:06:40.844Z,6.30
2023-04-13T10:09:07.980Z,6.15
2023-04-13T10:11:39.755Z,5.10
2023-04-13T10:14:09.278Z,7.20
2023-04-13T10:16:54.294Z,8.20
2023-04-13T10:19:23.368Z,5.15
2023-04-13T10:21:51.871Z,13.25
2023-04-13T10:24:19.445Z,5.78
2023-04-13T10:26:46.117Z,9.27
2023-04-13T10:29:14.670Z,10.57
2023-04-13T10:31:48.698Z,5.60
2023-04-13T10:34:26.450Z,8.32
2023-04-13T10:36:56.060Z,6.55
2023-04-13T10:39:27.644Z,7.57
2023-04-13T10:42:08.594Z,9.38
2023-04-13T10:44:46.056Z,5.75
2023-04-13T10:47:13.650Z,12.02
2023-04-13T10:49:40.994Z,6.13
2023-04-13T10:52:09.067Z,8.38
2023-04-13T10:54:35.766Z,6.03
2023-04-13T10:57:04.616Z,6.63
2023-04-13T10:59:57.961Z,10.60
2023-04-13T11:02:32.022Z,5.80
2023-04-13T11:05:01.594Z,6.78
2023-04-13T11:07:29.396Z,8.38
2023-04-13T11:12:28.609Z,6.10
2023-04-13T11:14:55.788Z,5.45
2023-04-13T11:17:23.056Z,6.18
2023-04-13T11:19:51.536Z,6.10
2023-04-13T11:22:19.222Z,4.65
2023-04-13T11:24:46.202Z,8.48
2023-04-13T11:27:25.431Z,5.82
2023-04-13T11:29:58.941Z,7.57
2023-04-13T11:32:26.375Z,6.43
2023-04-13T11:34:53.185Z,5.43
2023-04-13T11:37:20.178Z,6.50
2023-04-13T11:39:46.880Z,7.50
2023-04-13T11:42:13.646Z,5.78
2023-04-13T11:44:42.689Z,5.35
2023-04-13T11:47:13.112Z,6.68
2023-04-13T11:49:41.743Z,6.05
2023-04-13T11:52:08.413Z,5.60
2023-04-13T11:54:35.164Z,4.82
2023-04-13T11:57:02.481Z,4.65
2023-04-13T11:59:29.222Z,6.47
2023-04-13T12:02:02.854Z,3.28
2023-04-13T12:04:39.079Z,7.30
2023-04-13T12:07:14.154Z,4.82
2023-04-13T12:09:55.941Z,8.00
2023-04-13T12:15:15.384Z,5.05
2023-04-13T12:20:24.801Z,7.68
2023-04-13T12:23:00.176Z,11.70
2023-04-13T12:25:35.865Z,6.60
2023-04-13T12:28:03.733Z,5.82
2023-04-13T12:30:30.486Z,7.07
2023-04-13T12:32:57.502Z,5.68
2023-04-13T12:35:24.366Z,8.60
2023-04-13T12:37:52.465Z,7.07
2023-04-13T12:40:19.317Z,7.00
2023-04-13T12:42:46.595Z,11.32
2023-04-13T12:45:14.099Z,6.05
2023-04-13T12:47:41.575Z,9.02
2023-04-13T12:50:09.635Z,8.95
2023-04-13T12:52:37.297Z,10.93
2023-04-13T12:55:05.214Z,7.93
2023-04-13T12:57:33.512Z,5.30
2023-04-13T13:00:00.361Z,8.95
2023-04-13T13:02:29.874Z,5.00
2023-04-13T13:04:57.266Z,4.45
2023-04-13T13:07:24.067Z,6.80
2023-04-13T13:09:51.494Z,7.15
2023-04-13T13:12:18.669Z,4.43
2023-04-13T13:14:45.428Z,7.93
2023-04-13T13:17:12.183Z,6.57
2023-04-13T13:19:38.926Z,5.93
2023-04-13T13:22:06.184Z,3.95
2023-04-13T13:24:34.027Z,11.70
2023-04-13T13:27:37.475Z,8.35
2023-04-13T13:29:47.757Z,7.72
2023-04-13T13:32:14.649Z,5.65
2023-04-13T13:34:41.443Z,7.65
2023-04-13T13:37:08.804Z,7.55
2023-04-13T13:39:37.382Z,7.45
2023-04-13T13:42:05.137Z,10.77
2023-04-13T13:44:32.154Z,7.63
2023-04-13T13:46:59.065Z,5.28
2023-04-13T13:49:25.843Z,7.20
2023-04-13T13:51:52.853Z,4.43
2023-04-13T13:54:20.508Z,8.65
2023-04-13T13:56:47.224Z,4.97
2023-04-13T13:59:14.043Z,6.07
2023-04-13T14:01:41.164Z,5.47
2023-04-13T14:04:08.046Z,7.90
2023-04-13T14:06:35.657Z,6.40
2023-04-13T14:09:02.614Z,4.82
2023-04-13T14:11:29.903Z,7.65
2023-04-13T14:13:56.557Z,5.13
2023-04-13T14:16:23.599Z,5.47
2023-04-13T14:18:50.560Z,10.80
2023-04-13T14:21:21.374Z,9.18
2023-04-13T14:23:49.761Z,11.90
2023-04-13T14:26:16.716Z,22.42
2023-04-13T14:28:43.763Z,14.27
2023-04-13T14:31:10.554Z,17.42
2023-04-13T14:33:42.105Z,11.70
2023-04-13T14:36:11.042Z,10.23
2023-04-13T14:38:38.742Z,9.45
2023-04-13T14:41:05.986Z,5.75
2023-04-13T14:43:32.643Z,11.02
2023-04-13T14:45:59.415Z,14.55
2023-04-13T14:48:26.402Z,9.60
2023-04-13T14:50:53.275Z,6.75
2023-04-13T14:53:20.070Z,7.85
2023-04-13T14:55:47.391Z,8.25
2023-04-13T14:58:14.124Z,12.20
2023-04-13T15:00:41.186Z,5.93
2023-04-13T15:03:09.496Z,5.55
2023-04-13T15:05:47.332Z,6.25
2023-04-13T15:08:16.676Z,8.25
2023-04-13T15:10:43.429Z,7.00
2023-04-13T15:13:10.371Z,8.00
2023-04-13T15:15:37.344Z,6.93
2023-04-13T15:18:04.378Z,4.68
2023-04-13T15:20:31.490Z,6.80
2023-04-13T15:22:58.388Z,6.20
2023-04-13T15:25:25.487Z,5.47
2023-04-13T15:27:53.069Z,4.70
2023-04-13T15:30:28.147Z,6.03
2023-04-13T15:33:04.533Z,5.57
2023-04-13T15:35:31.876Z,6.07
2023-04-13T15:38:00.980Z,4.75
2023-04-13T15:40:29.049Z,5.72
2023-04-13T15:42:55.749Z,7.68
2023-04-13T15:45:22.546Z,5.80
2023-04-13T15:47:49.308Z,4.15
2023-04-13T15:50:17.463Z,3.90
2023-04-13T15:52:44.235Z,4.93
2023-04-13T15:55:12.129Z,3.55
2023-04-13T15:57:38.877Z,4.05
2023-04-13T16:00:08.882Z,9.00
2023-04-13T16:02:36.530Z,5.30
2023-04-13T16:05:03.642Z,4.90
2023-04-13T16:07:30.482Z,4.60
2023-04-13T16:09:58.399Z,5.10
2023-04-13T16:12:32.977Z,5.07
2023-04-13T16:14:59.871Z,5.50
2023-04-13T16:17:33.551Z,6.05
2023-04-13T16:20:14.530Z,7.65
2023-04-13T16:22:43.079Z,5.53
2023-04-13T16:25:15.244Z,17.50
2023-04-13T16:27:44.016Z,8.90
2023-04-13T16:30:13.209Z,7.65
2023-04-13T16:35:41.782Z,7.47
2023-04-13T16:38:08.453Z,5.90
2023-04-13T16:40:35.993Z,10.95
2023-04-13T16:43:03.878Z,7.75
2023-04-13T16:45:30.608Z,7.15
2023-04-13T16:47:57.389Z,9.63
2023-04-13T16:50:30.289Z,12.13
2023-04-13T16:52:58.166Z,10.18
2023-04-13T16:55:26.808Z,13.98
2023-04-13T16:57:53.545Z,15.85
2023-04-13T17:00:20.730Z,12.57
2023-04-13T17:02:47.860Z,9.57
2023-04-13T17:05:17.052Z,8.07
2023-04-13T17:07:51.290Z,15.75
2023-04-13T17:10:26.694Z,10.07
2023-04-13T17:12:53.378Z,12.10
2023-04-13T17:15:20.481Z,8.80
2023-04-13T17:17:51.563Z,12.60
2023-04-13T17:20:18.598Z,9.32
2023-04-13T17:23:04.617Z,11.10
2023-04-13T17:25:31.599Z,8.23
2023-04-13T17:27:58.265Z,7.32
2023-04-13T17:30:24.951Z,12.02
2023-04-13T17:32:51.657Z,9.07
2023-04-13T17:35:18.611Z,9.27
2023-04-13T17:37:51.245Z,9.30
2023-04-13T17:40:24.099Z,8.98
2023-04-13T17:42:50.932Z,10.68
2023-04-13T17:45:19.438Z,9.00
2023-04-13T17:47:48.175Z,8.07
2023-04-13T17:50:14.900Z,6.13
2023-04-13T17:52:42.137Z,6.55
2023-04-13T17:55:12.083Z,8.23
2023-04-13T17:57:48.519Z,4.97
2023-04-13T18:00:28.325Z,6.72
2023-04-13T18:03:00.713Z,4.75
2023-04-13T18:05:29.436Z,6.90
2023-04-13T18:08:03.777Z,8.02
2023-04-13T18:10:31.067Z,6.25
2023-04-13T18:12:59.918Z,5.20
2023-04-13T18:15:26.865Z,7.38
2023-04-13T18:17:53.604Z,9.45
2023-04-13T18:20:21.003Z,7.95
2023-04-13T18:22:48.703Z,10.02
2023-04-13T18:25:15.678Z,7.80
2023-04-13T18:27:42.897Z,5.85
2023-04-13T18:30:11.241Z,4.32
2023-04-13T18:32:38.093Z,5.63
2023-04-13T18:35:04.969Z,18.00
2023-04-13T18:37:31.690Z,8.32
2023-04-13T18:39:58.578Z,13.10
2023-04-13T18:42:26.068Z,8.75
2023-04-13T18:44:52.813Z,5.47
2023-04-13T18:47:27.774Z,6.57
2023-04-13T18:49:54.992Z,8.70
2023-04-13T18:52:23.659Z,8.43
2023-04-13T18:54:52.188Z,6.15
2023-04-13T18:57:19.996Z,7.47
2023-04-13T18:59:47.188Z,6.95
2023-04-13T19:02:15.135Z,4.65
2023-04-13T19:04:42.143Z,3.78
2023-04-13T19:07:08.892Z,5.95
2023-04-13T19:09:39.347Z,4.55
2023-04-13T19:12:06.600Z,8.40
2023-04-13T19:14:33.360Z,5.75
2023-04-13T19:17:00.196Z,4.93
2023-04-13T19:19:29.691Z,6.72
2023-04-13T19:21:56.404Z,4.43
2023-04-13T19:24:23.111Z,5.97
2023-04-13T19:26:50.681Z,3.70
2023-04-13T19:29:18.016Z,5.15
2023-04-13T19:31:45.274Z,4.65
2023-04-13T19:34:12.237Z,4.05
2023-04-13T19:36:39.070Z,2.95
2023-04-13T19:39:06.175Z,4.68
2023-04-13T19:41:33.227Z,6.15
2023-04-13T19:44:00.776Z,5.68
2023-04-13T19:46:28.690Z,4.43
2023-04-13T19:48:58.411Z,7.13
2023-04-13T19:51:28.794Z,4.63
2023-04-13T19:53:55.934Z,4.47
2023-04-13T19:56:23.406Z,3.88
2023-04-13T19:58:51.443Z,4.38
2023-04-13T20:01:18.492Z,4.07
2023-04-13T20:03:45.729Z,13.90
2023-04-13T20:06:12.562Z,7.40
2023-04-13T20:08:39.315Z,3.58
2023-04-13T20:11:06.298Z,2.67
2023-04-13T20:13:32.965Z,4.70
2023-04-13T20:15:59.666Z,3.40
2023-04-13T20:18:26.342Z,2.47
2023-04-13T20:20:53.629Z,4.35
2023-04-13T20:23:21.244Z,6.03
2023-04-13T20:25:48.451Z,5.35
2023-04-13T20:28:15.244Z,2.55
2023-04-13T20:30:42.014Z,2.83
2023-04-13T20:33:08.826Z,4.22
2023-04-13T20:35:35.564Z,6.28
2023-04-13T20:38:02.246Z,2.28
2023-04-13T20:40:28.928Z,2.70
2023-04-13T20:42:56.565Z,2.80
2023-04-13T20:45:24.574Z,2.80
2023-04-13T20:47:53.752Z,2.70
2023-04-13T20:50:26.999Z,2.30
2023-04-13T20:52:56.693Z,2.75
2023-04-13T20:55:25.018Z,3.67
2023-04-13T20:57:51.693Z,4.38
2023-04-13T21:00:19.270Z,3.47
2023-04-13T21:02:46.909Z,1.70
2023-04-13T21:05:13.910Z,1.75
2023-04-13T21:07:41.830Z,1.80
2023-04-13T21:10:09.364Z,2.28
2023-04-13T21:12:36.509Z,3.22
2023-04-13T21:15:06.716Z,1.73
2023-04-13T21:17:33.430Z,2.20
2023-04-13T21:20:00.809Z,1.52
2023-04-13T21:22:27.550Z,3.78
2023-04-13T21:24:55.366Z,2.55
2023-04-13T21:27:22.448Z,3.72
2023-04-13T21:29:49.200Z,2.60
2023-04-13T21:32:16.009Z,2.97
2023-04-13T21:34:42.792Z,3.22
2023-04-13T21:37:09.495Z,1.88
2023-04-13T21:39:36.184Z,2.40
2023-04-13T21:42:04.813Z,1.83
2023-04-13T21:44:31.540Z,3.47
2023-04-13T21:46:58.565Z,5.18
2023-04-13T21:49:25.582Z,1.67
2023-04-13T21:51:52.693Z,2.35
2023-04-13T21:54:19.405Z,2.38
2023-04-13T21:56:46.676Z,1.42
2023-04-13T21:59:13.369Z,3.70
2023-04-13T22:01:40.185Z,1.83
2023-04-13T22:04:07.115Z,2.17
2023-04-13T22:06:33.926Z,2.60
2023-04-13T22:09:00.934Z,3.08
2023-04-13T22:11:28.919Z,2.17
2023-04-13T22:13:55.692Z,1.88
2023-04-13T22:16:22.590Z,2.47
2023-04-13T22:18:49.502Z,2.45
2023-04-13T22:21:16.205Z,2.20
2023-04-13T22:23:42.929Z,2.88
2023-04-13T22:26:09.628Z,1.65
2023-04-13T22:28:36.356Z,3.13
2023-04-13T22:31:09.336Z,1.23
2023-04-13T22:33:36.436Z,3.50
2023-04-13T22:36:06.457Z,2.13
2023-04-13T22:38:33.142Z,2.17
2023-04-13T22:41:04.809Z,1.40
2023-04-13T22:43:31.482Z,2.88
2023-04-13T22:46:00.486Z,1.60
2023-04-13T22:48:31.348Z,1.85
2023-04-13T22:51:02.128Z,1.15
2023-04-13T22:53:29.947Z,1.50
2023-04-13T22:55:56.672Z,1.90
2023-04-13T22:58:23.501Z,2.45
2023-04-13T23:00:50.351Z,2.33
2023-04-13T23:03:17.196Z,2.22
2023-04-13T23:05:44.105Z,2.28
2023-04-13T23:08:10.959Z,2.08
2023-04-13T23:10:37.682Z,1.95
2023-04-13T23:13:04.740Z,1.95
2023-04-13T23:15:31.838Z,1.13
2023-04-13T23:17:58.691Z,2.42
2023-04-13T23:20:27.683Z,2.08
2023-04-13T23:22:54.358Z,2.15
2023-04-13T23:25:21.061Z,1.83
2023-04-13T23:27:47.808Z,2.38
2023-04-13T23:30:14.557Z,1.80
2023-04-13T23:32:41.329Z,2.60
2023-04-13T23:35:08.655Z,2.60
2023-04-13T23:37:35.486Z,3.88
2023-04-13T23:40:03.129Z,1.55
2023-04-13T23:42:29.919Z,1.27
2023-04-13T23:44:56.619Z,2.05
2023-04-13T23:47:23.282Z,2.42
2023-04-13T23:49:51.509Z,1.50
2023-04-13T23:52:18.850Z,2.33
2023-04-13T23:54:45.684Z,2.15
2023-04-13T23:57:12.728Z,4.45
2023-04-13T23:59:39.519Z,2.97
